createdAt,value
2022-09-01T00:00:02.245Z,100345.88
2022-09-01T00:02:31.306Z,100350.19
2022-09-01T00:04:59.626Z,100340.75
2022-09-01T00:07:27.521Z,100345.41
2022-09-01T00:09:55.312Z,100350.78
2022-09-01T00:12:25.824Z,100352.66
2022-09-01T00:14:53.455Z,100348.44
2022-09-01T00:17:21.176Z,100354.09
2022-09-01T00:19:49.612Z,100348.34
2022-09-01T00:22:17.252Z,100349.63
2022-09-01T00:24:44.979Z,100349.25
2022-09-01T00:27:12.993Z,100345.84
2022-09-01T00:29:43.191Z,100349.16
2022-09-01T00:32:11.782Z,100357.84
2022-09-01T00:34:39.755Z,100357.56
2022-09-01T00:37:07.400Z,100355.50
2022-09-01T00:39:35.029Z,100355.25
2022-09-01T00:42:02.809Z,100356.56
2022-09-01T00:44:31.372Z,100354.13
2022-09-01T00:46:59.832Z,100352.44
2022-09-01T00:49:27.673Z,100352.88
2022-09-01T00:51:55.556Z,100348.78
2022-09-01T00:54:24.135Z,100345.69
2022-09-01T00:56:57.271Z,100345.97
2022-09-01T00:59:25.534Z,100344.03
2022-09-01T01:01:53.590Z,100348.31
2022-09-01T01:04:21.333Z,100349.75
2022-09-01T01:06:49.971Z,100344.94
2022-09-01T01:09:17.627Z,100349.06
2022-09-01T01:11:46.622Z,100344.16
2022-09-01T01:14:15.712Z,100344.59
2022-09-01T01:16:44.841Z,100343.16
2022-09-01T01:19:35.851Z,100339.22
2022-09-01T01:22:23.823Z,100345.88
2022-09-01T01:24:52.490Z,100342.06
2022-09-01T01:27:22.208Z,100341.81
2022-09-01T01:29:53.408Z,100346.06
2022-09-01T01:32:21.201Z,100350.16
2022-09-01T01:34:49.740Z,100351.41
2022-09-01T01:37:17.388Z,100353.72
2022-09-01T01:39:44.989Z,100348.75
2022-09-01T01:42:12.687Z,100358.75
2022-09-01T01:44:42.785Z,100355.66
2022-09-01T01:47:12.226Z,100357.78
2022-09-01T01:49:40.446Z,100359.88
2022-09-01T01:52:08.343Z,100361.84
2022-09-01T01:54:37.612Z,100361.13
2022-09-01T01:57:05.517Z,100358.59
2022-09-01T01:59:34.012Z,100364.94
2022-09-01T02:02:04.134Z,100372.44
2022-09-01T02:04:34.568Z,100362.00
2022-09-01T02:07:02.287Z,100362.13
2022-09-01T02:09:29.893Z,100365.91
2022-09-01T02:11:59.071Z,100364.97
2022-09-01T02:14:27.048Z,100365.66
2022-09-01T02:16:56.335Z,100363.69
2022-09-01T02:19:24.110Z,100363.97
2022-09-01T02:21:54.554Z,100360.56
2022-09-01T02:24:22.567Z,100362.97
2022-09-01T02:26:50.249Z,100369.75
2022-09-01T02:29:21.056Z,100369.91
2022-09-01T02:31:48.692Z,100363.13
2022-09-01T02:34:16.653Z,100367.91
2022-09-01T02:36:47.771Z,100360.16
2022-09-01T02:39:15.445Z,100361.41
2022-09-01T02:41:43.291Z,100356.75
2022-09-01T02:44:13.050Z,100352.06
2022-09-01T02:46:42.258Z,100356.28
2022-09-01T02:49:15.477Z,100356.00
2022-09-01T02:51:43.220Z,100352.03
2022-09-01T02:54:11.198Z,100356.09
2022-09-01T02:56:38.929Z,100352.28
2022-09-01T02:59:13.275Z,100349.16
2022-09-01T03:01:40.997Z,100355.91
2022-09-01T03:04:10.063Z,100356.44
2022-09-01T03:06:37.761Z,100352.31
2022-09-01T03:09:05.816Z,100353.72
2022-09-01T03:11:33.641Z,100356.78
2022-09-01T03:14:02.165Z,100355.22
2022-09-01T03:16:31.047Z,100355.34
2022-09-01T03:18:58.670Z,100359.97
2022-09-01T03:21:26.347Z,100351.69
2022-09-01T03:23:54.326Z,100366.78
2022-09-01T03:26:22.649Z,100360.03
2022-09-01T03:28:53.018Z,100357.69
2022-09-01T03:31:20.769Z,100352.06
2022-09-01T03:33:49.304Z,100351.09
2022-09-01T03:36:20.403Z,100356.44
2022-09-01T03:38:49.475Z,100353.31
2022-09-01T03:41:17.946Z,100354.69
2022-09-01T03:43:46.019Z,100355.22
2022-09-01T03:46:20.442Z,100355.91
2022-09-01T03:48:50.445Z,100353.75
2022-09-01T03:51:18.194Z,100349.78
2022-09-01T03:53:47.532Z,100358.22
2022-09-01T03:56:15.332Z,100366.50
2022-09-01T03:58:47.454Z,100360.88
2022-09-01T04:01:16.238Z,100365.25
2022-09-01T04:03:49.175Z,100370.03
2022-09-01T04:06:18.715Z,100370.16
2022-09-01T04:08:46.463Z,100364.91
2022-09-01T04:11:16.593Z,100368.56
2022-09-01T04:13:44.338Z,100362.63
2022-09-01T04:16:32.278Z,100362.63
2022-09-01T04:19:00.694Z,100358.47
2022-09-01T04:21:30.542Z,100360.63
2022-09-01T04:24:05.473Z,100358.78
2022-09-01T04:26:34.024Z,100359.03
2022-09-01T04:29:02.449Z,100358.72
2022-09-01T04:31:31.068Z,100357.44
2022-09-01T04:33:58.755Z,100356.97
2022-09-01T04:36:27.658Z,100358.34
2022-09-01T04:38:56.278Z,100354.22
2022-09-01T04:41:25.919Z,100359.84
2022-09-01T04:43:57.359Z,100361.09
2022-09-01T04:46:27.004Z,100371.06
2022-09-01T04:48:54.724Z,100364.28
2022-09-01T04:51:22.450Z,100372.56
2022-09-01T04:53:50.813Z,100364.81
2022-09-01T04:56:20.014Z,100360.69
2022-09-01T04:58:48.013Z,100355.63
2022-09-01T05:01:15.989Z,100366.44
2022-09-01T05:03:45.478Z,100362.91
2022-09-01T05:06:13.313Z,100357.53
2022-09-01T05:08:42.176Z,100363.75
2022-09-01T05:11:13.133Z,100361.78
2022-09-01T05:13:41.230Z,100364.22
2022-09-01T05:16:13.186Z,100362.97
2022-09-01T05:18:41.189Z,100361.88
2022-09-01T05:21:11.183Z,100365.97
2022-09-01T05:23:40.675Z,100353.91
2022-09-01T05:26:14.851Z,100359.72
2022-09-01T05:28:43.664Z,100354.69
2022-09-01T05:31:12.838Z,100357.81
2022-09-01T05:33:46.139Z,100357.16
2022-09-01T05:36:13.953Z,100361.13
2022-09-01T05:38:42.435Z,100363.88
2022-09-01T05:41:11.418Z,100364.34
2022-09-01T05:43:39.517Z,100365.16
2022-09-01T05:46:07.641Z,100357.03
2022-09-01T05:48:40.359Z,100358.47
2022-09-01T05:51:22.350Z,100366.13
2022-09-01T05:53:59.003Z,100357.97
2022-09-01T05:56:26.764Z,100356.31
2022-09-01T06:01:46.843Z,100362.13
2022-09-01T06:04:17.127Z,100363.69
2022-09-01T06:07:05.356Z,100363.88
2022-09-01T06:09:33.900Z,100362.59
2022-09-01T06:12:02.956Z,100357.91
2022-09-01T06:14:30.967Z,100357.13
2022-09-01T06:16:59.170Z,100363.28
2022-09-01T06:19:26.987Z,100355.59
2022-09-01T06:21:56.371Z,100354.13
2022-09-01T06:24:24.608Z,100360.72
2022-09-01T06:26:52.231Z,100353.16
2022-09-01T06:29:20.641Z,100357.16
2022-09-01T06:31:52.983Z,100355.81
2022-09-01T06:34:20.885Z,100364.13
2022-09-01T06:36:48.709Z,100368.78
2022-09-01T06:39:20.199Z,100359.13
2022-09-01T06:41:49.649Z,100353.66
2022-09-01T06:44:22.738Z,100362.34
2022-09-01T06:46:50.433Z,100361.59
2022-09-01T06:49:18.227Z,100358.75
2022-09-01T06:51:52.109Z,100356.13
2022-09-01T06:54:21.243Z,100358.03
2022-09-01T06:59:55.610Z,100361.88
2022-09-01T07:05:59.769Z,100367.44
2022-09-01T07:08:06.132Z,100365.28
2022-09-01T07:10:34.686Z,100366.00
2022-09-01T07:13:24.120Z,100367.56
2022-09-01T07:18:40.481Z,100365.25
2022-09-01T07:21:38.736Z,100370.53
2022-09-01T07:24:10.797Z,100371.44
2022-09-01T07:26:46.873Z,100363.00
2022-09-01T07:29:15.300Z,100365.72
2022-09-01T07:32:43.668Z,100364.69
2022-09-01T07:34:39.656Z,100368.09
2022-09-01T07:39:55.764Z,100366.91
2022-09-01T07:45:28.441Z,100353.88
2022-09-01T07:47:56.822Z,100361.63
2022-09-01T07:50:40.270Z,100352.13
2022-09-01T07:53:08.747Z,100352.44
2022-09-01T07:55:36.518Z,100348.84
2022-09-01T07:58:04.168Z,100344.91
2022-09-01T08:00:32.033Z,100349.25
2022-09-01T08:03:00.284Z,100346.50
2022-09-01T08:05:29.088Z,100345.44
2022-09-01T08:07:56.831Z,100351.53
2022-09-01T08:10:24.727Z,100342.16
2022-09-01T08:12:59.742Z,100344.63
2022-09-01T08:16:06.939Z,100343.72
2022-09-01T08:18:15.526Z,100341.78
2022-09-01T08:20:45.830Z,100348.00
2022-09-01T08:23:13.701Z,100350.00
2022-09-01T08:25:42.229Z,100353.50
2022-09-01T08:28:09.986Z,100349.69
2022-09-01T08:30:37.900Z,100344.88
2022-09-01T08:33:12.721Z,100351.34
2022-09-01T08:35:40.679Z,100345.09
2022-09-01T08:38:08.457Z,100349.72
2022-09-01T08:40:36.373Z,100352.81
2022-09-01T08:43:04.360Z,100340.63
2022-09-01T08:45:31.966Z,100346.47
2022-09-01T08:48:29.177Z,100345.63
2022-09-01T08:50:51.908Z,100349.16
2022-09-01T08:53:21.073Z,100348.88
2022-09-01T08:55:49.538Z,100333.94
2022-09-01T08:58:17.308Z,100336.16
2022-09-01T09:00:49.271Z,100331.94
2022-09-01T09:03:20.790Z,100330.38
2022-09-01T09:05:49.452Z,100327.97
2022-09-01T09:08:17.075Z,100335.31
2022-09-01T09:10:48.082Z,100334.41
2022-09-01T09:13:16.846Z,100336.00
2022-09-01T09:15:45.194Z,100335.97
2022-09-01T09:18:20.323Z,100327.22
2022-09-01T09:21:00.567Z,100332.22
2022-09-01T09:23:28.245Z,100324.69
2022-09-01T09:25:56.852Z,100325.03
2022-09-01T09:28:25.703Z,100317.72
2022-09-01T09:30:53.611Z,100328.25
2022-09-01T09:36:09.460Z,100320.78
2022-09-01T09:38:37.254Z,100314.09
2022-09-01T09:41:17.797Z,100318.09
2022-09-01T09:43:48.456Z,100311.78
2022-09-01T09:46:25.322Z,100304.81
2022-09-01T09:48:53.826Z,100300.00
2022-09-01T09:51:21.907Z,100298.69
2022-09-01T09:53:49.592Z,100299.16
2022-09-01T09:56:18.129Z,100299.56
2022-09-01T09:58:46.770Z,100294.16
2022-09-01T10:01:17.861Z,100280.41
2022-09-01T10:03:45.663Z,100281.78
2022-09-01T10:06:13.643Z,100277.22
2022-09-01T10:08:45.505Z,100276.00
2022-09-01T10:11:14.006Z,100283.97
2022-09-01T10:13:41.767Z,100273.88
2022-09-01T10:16:11.305Z,100272.97
2022-09-01T10:18:39.416Z,100270.78
2022-09-01T10:21:07.140Z,100264.06
2022-09-01T10:23:34.908Z,100265.41
2022-09-01T10:26:05.892Z,100260.38
2022-09-01T10:28:34.249Z,100249.81
2022-09-01T10:31:02.611Z,100251.53
2022-09-01T10:33:31.408Z,100256.28
2022-09-01T10:35:59.313Z,100252.38
2022-09-01T10:38:27.237Z,100251.72
2022-09-01T10:41:07.759Z,100257.16
2022-09-01T10:43:37.255Z,100250.94
2022-09-01T10:46:09.071Z,100257.75
2022-09-01T10:48:51.891Z,100259.16
2022-09-01T10:51:28.928Z,100246.66
2022-09-01T10:54:04.596Z,100252.25
2022-09-01T10:56:36.574Z,100241.94
2022-09-01T11:01:52.907Z,100235.47
2022-09-01T11:04:21.088Z,100238.97
2022-09-01T11:09:36.967Z,100242.38
2022-09-01T11:12:05.101Z,100234.69
2022-09-01T11:14:36.038Z,100233.75
2022-09-01T11:17:04.056Z,100233.84
2022-09-01T11:19:31.725Z,100227.31
2022-09-01T11:21:59.772Z,100237.97
2022-09-01T11:24:27.762Z,100246.56
2022-09-01T11:26:55.709Z,100235.94
2022-09-01T11:29:23.553Z,100238.94
2022-09-01T11:31:51.312Z,100228.78
2022-09-01T11:34:19.239Z,100226.31
2022-09-01T11:36:48.155Z,100234.94
2022-09-01T11:39:16.160Z,100234.31
2022-09-01T11:41:45.387Z,100234.94
2022-09-01T11:44:13.213Z,100235.41
2022-09-01T11:46:43.421Z,100233.69
2022-09-01T11:49:11.739Z,100223.72
2022-09-01T11:51:39.645Z,100222.63
2022-09-01T11:54:07.411Z,100226.22
2022-09-01T11:56:35.095Z,100214.81
2022-09-01T11:59:02.790Z,100214.47
2022-09-01T12:01:30.458Z,100212.50
2022-09-01T12:03:59.164Z,100212.38
2022-09-01T12:06:27.171Z,100214.63
2022-09-01T12:08:54.863Z,100207.09
2022-09-01T12:11:22.671Z,100202.22
2022-09-01T12:13:50.350Z,100199.19
2022-09-01T12:16:19.357Z,100202.75
2022-09-01T12:18:47.577Z,100213.53
2022-09-01T12:21:15.237Z,100205.41
2022-09-01T12:23:45.504Z,100196.97
2022-09-01T12:26:13.473Z,100208.56
2022-09-01T12:28:41.846Z,100196.66
2022-09-01T12:31:09.567Z,100189.97
2022-09-01T12:33:37.580Z,100201.06
2022-09-01T12:36:05.787Z,100171.00
2022-09-01T12:38:33.471Z,100179.50
2022-09-01T12:41:01.353Z,100191.75
2022-09-01T12:43:29.052Z,100185.69
2022-09-01T12:46:00.182Z,100181.88
2022-09-01T12:48:28.961Z,100186.63
2022-09-01T12:50:57.911Z,100183.50
2022-09-01T12:53:30.369Z,100177.50
2022-09-01T12:55:59.795Z,100167.00
2022-09-01T12:58:27.467Z,100174.63
2022-09-01T13:00:55.851Z,100170.06
2022-09-01T13:03:23.789Z,100178.75
2022-09-01T13:05:51.990Z,100174.16
2022-09-01T13:08:19.696Z,100168.72
2022-09-01T13:10:47.458Z,100170.63
2022-09-01T13:13:15.143Z,100173.38
2022-09-01T13:15:43.867Z,100165.22
2022-09-01T13:18:11.707Z,100166.94
2022-09-01T13:20:39.402Z,100169.28
2022-09-01T13:23:07.086Z,100168.38
2022-09-01T13:25:35.810Z,100168.50
2022-09-01T13:28:03.993Z,100160.66
2022-09-01T13:30:31.688Z,100149.78
2022-09-01T13:35:47.518Z,100147.81
2022-09-01T13:38:16.965Z,100142.41
2022-09-01T13:40:45.778Z,100142.19
2022-09-01T13:43:15.365Z,100138.31
2022-09-01T13:45:45.075Z,100146.53
2022-09-01T13:48:16.687Z,100144.38
2022-09-01T13:53:32.601Z,100136.16
2022-09-01T13:56:00.534Z,100122.75
2022-09-01T13:58:28.279Z,100138.34
2022-09-01T14:00:59.678Z,100126.03
2022-09-01T14:03:27.501Z,100120.53
2022-09-01T14:05:55.705Z,100129.50
2022-09-01T14:08:23.890Z,100132.06
2022-09-01T14:10:52.051Z,100126.31
2022-09-01T14:13:19.772Z,100131.53
2022-09-01T14:15:49.348Z,100119.19
2022-09-01T14:18:17.418Z,100133.09
2022-09-01T14:20:45.357Z,100129.25
2022-09-01T14:23:13.393Z,100126.22
2022-09-01T14:25:41.870Z,100117.91
2022-09-01T14:28:09.599Z,100123.09
2022-09-01T14:30:37.654Z,100111.66
2022-09-01T14:33:05.477Z,100114.72
2022-09-01T14:35:34.517Z,100106.81
2022-09-01T14:38:02.850Z,100104.66
2022-09-01T14:40:30.934Z,100101.19
2022-09-01T14:42:58.794Z,100100.28
2022-09-01T14:45:26.528Z,100100.19
2022-09-01T14:47:54.692Z,100105.00
2022-09-01T14:50:23.361Z,100098.78
2022-09-01T14:52:51.350Z,100102.00
2022-09-01T14:55:18.948Z,100097.44
2022-09-01T14:57:46.750Z,100095.47
2022-09-01T15:00:14.807Z,100088.47
2022-09-01T15:02:42.504Z,100091.19
2022-09-01T15:05:16.041Z,100080.56
2022-09-01T15:07:43.843Z,100087.47
2022-09-01T15:10:11.513Z,100086.63
2022-09-01T15:12:43.813Z,100084.06
2022-09-01T15:15:12.302Z,100079.34
2022-09-01T15:17:42.240Z,100079.34
2022-09-01T15:20:32.230Z,100089.06
2022-09-01T15:23:00.066Z,100078.47
2022-09-01T15:25:27.809Z,100073.28
2022-09-01T15:27:55.464Z,100072.06
2022-09-01T15:30:23.216Z,100072.75
2022-09-01T15:32:51.034Z,100058.91
2022-09-01T15:35:18.961Z,100067.06
2022-09-01T15:37:46.706Z,100076.06
2022-09-01T15:40:14.553Z,100069.47
2022-09-01T15:42:42.307Z,100066.00
2022-09-01T15:45:10.008Z,100071.00
2022-09-01T15:47:39.572Z,100060.78
2022-09-01T15:50:09.120Z,100060.22
2022-09-01T15:52:39.408Z,100060.00
2022-09-01T15:55:07.155Z,100056.41
2022-09-01T15:57:35.157Z,100055.28
2022-09-01T16:00:02.875Z,100055.28
2022-09-01T16:02:31.548Z,100065.53
2022-09-01T16:05:00.430Z,100056.41
2022-09-01T16:07:28.138Z,100056.94
2022-09-01T16:09:58.167Z,100055.56
2022-09-01T16:12:26.631Z,100052.09
2022-09-01T16:14:55.297Z,100058.53
2022-09-01T16:17:23.048Z,100063.38
2022-09-01T16:19:50.782Z,100066.06
2022-09-01T16:22:18.449Z,100063.94
2022-09-01T16:24:46.501Z,100064.75
2022-09-01T16:27:14.193Z,100062.78
2022-09-01T16:29:45.200Z,100061.09
2022-09-01T16:32:13.222Z,100065.84
2022-09-01T16:34:44.764Z,100061.84
2022-09-01T16:37:12.743Z,100060.09
2022-09-01T16:39:40.452Z,100055.63
2022-09-01T16:42:08.167Z,100061.13
2022-09-01T16:44:35.874Z,100053.44
2022-09-01T16:47:04.282Z,100058.06
2022-09-01T16:49:32.122Z,100065.47
2022-09-01T16:52:00.245Z,100057.25
2022-09-01T16:54:28.050Z,100053.72
2022-09-01T16:56:56.041Z,100052.69
2022-09-01T16:59:23.773Z,100055.84
2022-09-01T17:01:52.495Z,100045.56
2022-09-01T17:04:20.252Z,100057.72
2022-09-01T17:06:48.188Z,100049.94
2022-09-01T17:09:15.885Z,100052.03
2022-09-01T17:11:49.166Z,100044.03
2022-09-01T17:14:25.993Z,100046.94
2022-09-01T17:16:54.793Z,100045.28
2022-09-01T17:19:24.766Z,100054.47
2022-09-01T17:21:54.562Z,100054.66
2022-09-01T17:24:23.111Z,100054.66
2022-09-01T17:26:51.335Z,100061.09
2022-09-01T17:29:23.316Z,100060.84
2022-09-01T17:31:51.091Z,100052.66
2022-09-01T17:34:18.981Z,100052.63
2022-09-01T17:36:48.240Z,100057.81
2022-09-01T17:39:16.119Z,100055.28
2022-09-01T17:41:43.885Z,100061.56
2022-09-01T17:44:13.035Z,100056.28
2022-09-01T17:46:41.793Z,100056.22
2022-09-01T17:49:10.032Z,100059.31
2022-09-01T17:51:37.801Z,100056.56
2022-09-01T17:54:05.515Z,100059.22
2022-09-01T17:56:34.529Z,100066.47
2022-09-01T17:59:02.258Z,100063.91
2022-09-01T18:01:29.977Z,100066.78
2022-09-01T18:03:58.073Z,100063.19
2022-09-01T18:06:26.151Z,100055.81
2022-09-01T18:08:54.471Z,100055.78
2022-09-01T18:11:23.237Z,100065.34
2022-09-01T18:13:53.199Z,100059.84
2022-09-01T18:16:21.896Z,100065.03
2022-09-01T18:18:49.890Z,100071.22
2022-09-01T18:21:17.606Z,100070.31
2022-09-01T18:23:45.286Z,100069.38
2022-09-01T18:26:13.356Z,100075.63
2022-09-01T18:28:42.258Z,100080.94
2022-09-01T18:31:10.069Z,100084.25
2022-09-01T18:33:37.736Z,100086.69
2022-09-01T18:36:05.700Z,100077.63
2022-09-01T18:38:33.378Z,100087.59
2022-09-01T18:41:01.073Z,100088.34
2022-09-01T18:43:29.316Z,100089.13
2022-09-01T18:45:57.082Z,100097.19
2022-09-01T18:48:24.932Z,100096.03
2022-09-01T18:50:52.840Z,100099.53
2022-09-01T18:53:20.866Z,100097.53
2022-09-01T18:55:48.764Z,100099.16
2022-09-01T18:58:16.662Z,100102.38
2022-09-01T19:00:44.435Z,100106.53
2022-09-01T19:03:17.392Z,100106.44
2022-09-01T19:05:45.640Z,100110.53
2022-09-01T19:08:13.395Z,100110.44
2022-09-01T19:10:41.144Z,100104.91
2022-09-01T19:13:10.036Z,100101.09
2022-09-01T19:15:39.314Z,100101.81
2022-09-01T19:18:07.192Z,100109.69
2022-09-01T19:20:34.866Z,100108.53
2022-09-01T19:23:04.858Z,100113.69
2022-09-01T19:25:37.040Z,100112.53
2022-09-01T19:28:04.930Z,100124.78
2022-09-01T19:30:35.550Z,100127.13
2022-09-01T19:33:03.592Z,100126.88
2022-09-01T19:35:32.696Z,100129.28
2022-09-01T19:38:02.293Z,100130.00
2022-09-01T19:40:30.695Z,100130.16
2022-09-01T19:42:58.550Z,100134.44
2022-09-01T19:45:26.257Z,100138.56
2022-09-01T19:47:54.074Z,100131.16
2022-09-01T19:50:22.769Z,100131.22
2022-09-01T19:52:50.584Z,100124.84
2022-09-01T19:55:18.199Z,100138.91
2022-09-01T19:57:46.095Z,100137.75
2022-09-01T20:00:13.700Z,100132.19
2022-09-01T20:02:41.660Z,100127.50
2022-09-01T20:05:09.674Z,100133.44
2022-09-01T20:07:37.341Z,100126.91
2022-09-01T20:10:05.072Z,100129.44
2022-09-01T20:12:34.217Z,100126.28
2022-09-01T20:15:02.117Z,100127.84
2022-09-01T20:17:29.846Z,100126.09
2022-09-01T20:19:57.464Z,100134.25
2022-09-01T20:22:25.256Z,100125.84
2022-09-01T20:25:00.358Z,100125.69
2022-09-01T20:27:28.185Z,100124.34
2022-09-01T20:29:57.136Z,100132.09
2022-09-01T20:32:27.806Z,100140.38
2022-09-01T20:34:56.329Z,100133.47
2022-09-01T20:37:24.077Z,100130.44
2022-09-01T20:40:04.465Z,100130.09
2022-09-01T20:42:32.603Z,100132.28
2022-09-01T20:45:00.249Z,100125.34
2022-09-01T20:47:28.038Z,100126.38
2022-09-01T20:49:55.965Z,100128.41
2022-09-01T20:52:23.658Z,100127.56
2022-09-01T20:54:51.318Z,100131.44
2022-09-01T20:57:19.015Z,100129.94
2022-09-01T20:59:46.870Z,100134.13
2022-09-01T21:02:14.778Z,100130.56
2022-09-01T21:04:42.698Z,100132.38
2022-09-01T21:07:10.771Z,100129.66
2022-09-01T21:09:38.461Z,100128.81
2022-09-01T21:12:06.519Z,100131.31
2022-09-01T21:14:34.207Z,100129.44
2022-09-01T21:17:03.031Z,100135.66
2022-09-01T21:19:30.895Z,100134.31
2022-09-01T21:21:58.810Z,100134.97
2022-09-01T21:24:26.562Z,100147.94
2022-09-01T21:26:56.774Z,100144.25
2022-09-01T21:29:24.965Z,100143.25
2022-09-01T21:31:52.642Z,100141.91
2022-09-01T21:34:20.360Z,100142.09
2022-09-01T21:36:48.356Z,100138.59
2022-09-01T21:39:16.068Z,100141.47
2022-09-01T21:41:43.696Z,100135.56
2022-09-01T21:44:11.433Z,100132.72
2022-09-01T21:46:39.334Z,100130.19
2022-09-01T21:49:07.135Z,100125.97
2022-09-01T21:51:34.794Z,100120.25
2022-09-01T21:54:03.099Z,100121.91
2022-09-01T21:56:31.833Z,100128.81
2022-09-01T21:58:59.970Z,100130.13
2022-09-01T22:01:31.949Z,100123.41
2022-09-01T22:03:59.660Z,100125.22
2022-09-01T22:06:27.617Z,100128.06
2022-09-01T22:08:55.558Z,100115.97
2022-09-01T22:11:23.185Z,100122.50
2022-09-01T22:13:50.896Z,100121.13
2022-09-01T22:16:18.895Z,100115.72
2022-09-01T22:18:47.259Z,100120.78
2022-09-01T22:21:14.969Z,100113.19
2022-09-01T22:23:42.633Z,100115.03
2022-09-01T22:26:14.971Z,100102.56
2022-09-01T22:28:43.216Z,100113.50
2022-09-01T22:31:10.967Z,100108.97
2022-09-01T22:33:38.732Z,100103.56
2022-09-01T22:36:06.630Z,100106.09
2022-09-01T22:38:34.359Z,100103.72
2022-09-01T22:41:02.422Z,100105.56
2022-09-01T22:43:30.314Z,100103.88
2022-09-01T22:45:58.430Z,100102.19
2022-09-01T22:48:26.219Z,100100.50
2022-09-01T22:50:54.015Z,100098.81
2022-09-01T22:53:22.796Z,100095.13
2022-09-01T22:55:50.865Z,100103.88
2022-09-01T22:58:18.565Z,100107.28
2022-09-01T23:00:46.350Z,100108.09
2022-09-01T23:03:14.995Z,100098.84
2022-09-01T23:05:43.001Z,100101.56
2022-09-01T23:08:20.100Z,100096.16
2022-09-01T23:10:48.148Z,100097.69
2022-09-01T23:13:16.129Z,100090.28
2022-09-01T23:15:43.853Z,100099.03
2022-09-01T23:18:11.738Z,100094.50
2022-09-01T23:20:39.497Z,100088.97
2022-09-01T23:23:07.521Z,100087.97
2022-09-01T23:25:35.137Z,100088.13
2022-09-01T23:28:02.796Z,100085.41
2022-09-01T23:30:30.474Z,100078.34
2022-09-01T23:32:58.246Z,100080.03
2022-09-01T23:35:26.958Z,100079.88
2022-09-01T23:37:54.574Z,100079.03
2022-09-01T23:40:22.722Z,100072.97
2022-09-01T23:42:50.421Z,100068.59
2022-09-01T23:45:18.401Z,100074.97
2022-09-01T23:47:46.060Z,100064.22
2022-09-01T23:50:13.667Z,100064.50
2022-09-01T23:52:41.391Z,100058.63
2022-09-01T23:55:09.409Z,100059.63
2022-09-01T23:57:37.118Z,100059.63
